Terminal Aerodrome Forecast
Issued by NWS

Current Version | Previous Version | Text Only | Print | Product List | Glossary On
Versions: 1 2 3 4 5 6 7 8 9 10 11 12 13 14 15 16 17 18 19
000
FTUS42 KRAH 210520
TAFRWI
TAF
KRWI 210520Z 2106/2206 00000KT 1SM BR SKC
      TEMPO 2106/2108 5SM BR
     FM211150 04003KT P6SM FEW250=

USA.gov is the U.S. government's official web portal to all federal, state and local government web resources and services.